»·PEaware :: N27JP L88-KSBP

N27JP :: L88-KSBP

FLIGHT INFORMATION

Flight Status: Arrived
Operator: Privately registered:
United States
More flights under this callsign
Pilot: Weston J. (31543)
Aircraft: CESSNA 172 SKYHAWK
(C172)
More flights by this aircraft type
Origin: L88 New Cuyama
United States
Destination: KSBP San Luis Co Regl
United States
More flights between these airports :: More routes between these airports
Route:
File this flight plan on PilotEdge
Remarks: Practice route for CAT-02
Altitude:
(Current/Filed)
7,000ft
Speed:
(Current/Filed)
110kts
Departed: 16-Sep-20 01:09 PM
Arrived: 16-Sep-20 02:07 PM
Distance/Time
Traveled:
47nm/0:58
Distance/Time
To Go:
Arrived

Flight Plot

Page will automatically refresh every two minutes.


Map Options




Map Legend


Flown Route
Filed Route
Departure Airport
Arrival Airport
Navaid (VOR, NDB)
Fix

Horizontal Profiles

Position Reports

Time Latitude Longitude Heading Altitude Ground
Speed
16-Sep-20 13:06 34.942611 -119.690256 108 2180ft 0kts
16-Sep-20 13:07 34.942611 -119.690256 108 2180ft 0kts
16-Sep-20 13:08 34.942654 -119.691303 201 2178ft 0kts
16-Sep-20 13:08 34.939372 -119.684151 117 2268ft 68kts
16-Sep-20 13:10 34.925907 -119.686233 301 2879ft 86kts
16-Sep-20 13:11 34.941705 -119.714470 292 3221ft 109kts
16-Sep-20 13:11 34.952112 -119.743133 292 3554ft 112kts
16-Sep-20 13:12 34.964782 -119.778025 293 3964ft 112kts
16-Sep-20 13:14 34.979345 -119.818848 293 4430ft 112kts
16-Sep-20 13:14 34.990971 -119.846939 303 4766ft 110kts
16-Sep-20 13:15 35.006730 -119.878132 303 5158ft 109kts
16-Sep-20 13:16 35.022571 -119.909965 303 5553ft 108kts
16-Sep-20 13:17 35.038237 -119.941526 303 5961ft 109kts
16-Sep-20 13:18 35.055543 -119.975971 303 5991ft 124kts
16-Sep-20 13:19 35.073804 -120.012293 303 5992ft 126kts
16-Sep-20 13:20 35.092118 -120.048772 303 5990ft 126kts
16-Sep-20 13:21 35.110542 -120.085165 303 5993ft 126kts
16-Sep-20 13:22 35.128800 -120.121149 303 5995ft 123kts
16-Sep-20 13:23 35.146922 -120.156782 303 5990ft 122kts
16-Sep-20 13:24 35.164785 -120.192123 303 5992ft 120kts
16-Sep-20 13:25 35.182718 -120.227407 303 5992ft 123kts
16-Sep-20 13:26 35.200956 -120.262719 310 5993ft 123kts
16-Sep-20 13:27 35.224001 -120.294249 313 5987ft 124kts
16-Sep-20 13:28 35.246771 -120.325399 313 5983ft 120kts
16-Sep-20 13:29 35.265378 -120.360294 303 5988ft 121kts
16-Sep-20 13:30 35.283478 -120.395955 304 5996ft 124kts
16-Sep-20 13:31 35.306174 -120.427586 313 6007ft 123kts
16-Sep-20 13:32 35.335030 -120.438954 38 6005ft 116kts
16-Sep-20 13:33 35.349045 -120.403803 83 5772ft 126kts
16-Sep-20 13:34 35.349794 -120.360808 125 5308ft 127kts
16-Sep-20 13:35 35.332398 -120.384779 263 5333ft 127kts
16-Sep-20 13:36 35.327772 -120.427752 266 5328ft 126kts
16-Sep-20 13:37 35.328006 -120.470778 272 5327ft 126kts
16-Sep-20 13:38 35.330503 -120.513566 282 5328ft 126kts
16-Sep-20 13:39 35.341770 -120.553713 293 5329ft 125kts
16-Sep-20 13:40 35.354484 -120.594514 291 5043ft 128kts
16-Sep-20 13:41 35.366290 -120.632724 292 4916ft 111kts
16-Sep-20 13:42 35.376507 -120.669004 283 4626ft 126kts
16-Sep-20 13:43 35.361379 -120.685117 130 4263ft 108kts
16-Sep-20 13:44 35.345095 -120.661258 97 4192ft 94kts
16-Sep-20 13:45 35.344246 -120.631207 85 4324ft 103kts
16-Sep-20 13:46 35.339011 -120.593653 106 4335ft 118kts
16-Sep-20 13:47 35.324292 -120.557788 136 4327ft 122kts
16-Sep-20 13:48 35.298270 -120.530842 136 4313ft 119kts
16-Sep-20 13:49 35.272688 -120.504145 136 4298ft 119kts
16-Sep-20 13:52 35.195325 -120.422186 136 4314ft 126kts
16-Sep-20 13:53 35.165141 -120.399289 147 4323ft 128kts
16-Sep-20 13:54 35.149479 -120.419164 298 4486ft 127kts
16-Sep-20 13:55 35.161391 -120.461772 282 3942ft 138kts
16-Sep-20 13:56 35.179339 -120.488401 48 3362ft 133kts
16-Sep-20 13:57 35.190933 -120.450508 81 3669ft 119kts
16-Sep-20 13:58 35.188284 -120.409229 122 3616ft 129kts
16-Sep-20 13:59 35.164069 -120.423156 268 3615ft 128kts
16-Sep-20 14:00 35.167236 -120.467821 277 3360ft 136kts
16-Sep-20 14:01 35.176745 -120.510778 296 2554ft 127kts
16-Sep-20 14:02 35.193683 -120.547199 280 1850ft 127kts
16-Sep-20 14:03 35.204843 -120.585010 304 1544ft 122kts
16-Sep-20 14:04 35.222992 -120.616288 305 691ft 94kts
16-Sep-20 14:05 35.236016 -120.638730 311 200ft 44kts
16-Sep-20 14:06 35.237662 -120.639887 9 194ft 0kts
16-Sep-20 14:07 35.236036 -120.636903 117 204ft 21kts
16-Sep-20 14:08 0.000408 0.013975 359 3ft 0kts
16-Sep-20 14:09 35.102153 -120.622308 16 14ft 0kts
16-Sep-20 14:10 35.102153 -120.622308 16 18ft 0kts
16-Sep-20 14:11 35.102153 -120.622308 16 18ft 0kts
16-Sep-20 14:12 35.102153 -120.622308 16 18ft 0kts
16-Sep-20 14:13 35.102153 -120.622308 16 18ft 0kts
16-Sep-20 14:14 35.102153 -120.622308 16 18ft 0kts
16-Sep-20 14:15 35.102153 -120.622308 16 18ft 0kts
16-Sep-20 14:16 35.102153 -120.622308 16 18ft 0kts
16-Sep-20 14:17 35.102153 -120.622308 16 18ft 0kts
16-Sep-20 14:18 35.102153 -120.622308 16 18ft 0kts
16-Sep-20 14:19 35.102153 -120.622308 16 18ft 0kts
16-Sep-20 14:20 35.101788 -120.622323 211 18ft 9kts

Navigation Log

Ident Type
Flight plan parsing failed, navigation log unavailable